createdAt,value
2024-05-09T00:01:23.788Z,10.13
2024-05-09T00:06:26.118Z,10.70
2024-05-09T00:11:28.544Z,9.37
2024-05-09T00:16:30.875Z,10.70
2024-05-09T00:21:33.119Z,9.73
2024-05-09T00:26:35.484Z,9.20
2024-05-09T00:31:37.796Z,9.43
2024-05-09T00:36:40.112Z,12.03
2024-05-09T00:41:42.432Z,9.90
2024-05-09T00:46:44.874Z,10.73
2024-05-09T00:51:47.299Z,10.13
2024-05-09T00:56:52.403Z,8.87
2024-05-09T01:01:54.901Z,10.37
2024-05-09T01:06:57.220Z,9.63
2024-05-09T01:11:59.619Z,10.17
2024-05-09T01:17:01.988Z,8.53
2024-05-09T01:22:04.675Z,9.33
2024-05-09T01:27:06.955Z,8.90
2024-05-09T01:32:09.347Z,10.30
2024-05-09T01:37:11.677Z,10.03
2024-05-09T01:42:14.078Z,8.63
2024-05-09T01:47:16.427Z,8.53
2024-05-09T01:52:18.826Z,8.53
2024-05-09T01:57:21.184Z,9.43
2024-05-09T02:02:23.533Z,8.90
2024-05-09T02:07:26.135Z,10.07
2024-05-09T02:12:28.530Z,8.90
2024-05-09T02:17:31.198Z,10.60
2024-05-09T02:22:33.589Z,10.33
2024-05-09T02:27:36.458Z,10.70
2024-05-09T02:32:38.983Z,10.53
2024-05-09T02:37:41.356Z,10.57
2024-05-09T02:42:43.670Z,10.63
2024-05-09T02:47:46.163Z,10.57
2024-05-09T02:52:48.564Z,10.67
2024-05-09T02:57:51.027Z,11.33
2024-05-09T03:02:53.435Z,10.47
2024-05-09T03:07:55.830Z,10.43
2024-05-09T03:12:58.114Z,12.87
2024-05-09T03:18:01.411Z,11.07
2024-05-09T03:23:05.353Z,10.30
2024-05-09T03:28:08.102Z,11.87
2024-05-09T03:33:19.392Z,10.70
2024-05-09T03:38:22.812Z,10.50
2024-05-09T03:43:25.117Z,11.23
2024-05-09T03:48:27.544Z,11.40
2024-05-09T03:53:29.988Z,11.13
2024-05-09T03:58:33.078Z,13.17
2024-05-09T04:03:35.475Z,12.60
2024-05-09T04:08:37.819Z,16.60
2024-05-09T04:13:40.125Z,13.50
2024-05-09T04:18:42.460Z,17.53
2024-05-09T04:23:44.834Z,14.30
2024-05-09T04:28:47.174Z,14.83
2024-05-09T04:33:49.716Z,16.17
2024-05-09T04:38:52.077Z,18.30
2024-05-09T04:43:54.364Z,16.60
2024-05-09T04:48:56.710Z,20.20
2024-05-09T04:53:59.066Z,20.17
2024-05-09T04:59:01.403Z,23.43
2024-05-09T05:04:03.777Z,22.73
2024-05-09T05:09:06.230Z,23.73
2024-05-09T05:14:08.585Z,24.50
2024-05-09T05:19:13.402Z,23.53
2024-05-09T05:24:17.359Z,24.07
2024-05-09T05:29:20.862Z,26.63
2024-05-09T05:34:23.297Z,28.93
2024-05-09T05:39:25.559Z,28.20
2024-05-09T05:44:28.002Z,31.93
2024-05-09T05:49:30.388Z,28.83
2024-05-09T05:54:32.907Z,32.37
2024-05-09T05:59:35.219Z,31.57
2024-05-09T06:04:37.524Z,34.90
2024-05-09T06:09:39.824Z,33.63
2024-05-09T06:14:42.175Z,29.37
2024-05-09T06:19:44.745Z,28.77
2024-05-09T06:24:47.187Z,23.83
2024-05-09T06:29:49.653Z,24.37
2024-05-09T06:34:51.922Z,24.20
2024-05-09T06:39:54.241Z,22.20
2024-05-09T06:44:56.600Z,13.07
2024-05-09T06:49:58.926Z,10.17
2024-05-09T06:55:01.244Z,9.50
2024-05-09T07:00:03.893Z,10.80
2024-05-09T07:05:06.661Z,9.23
2024-05-09T07:10:12.258Z,10.63
2024-05-09T07:15:17.373Z,8.90
2024-05-09T07:20:27.498Z,9.23
2024-05-09T07:25:36.282Z,9.50
2024-05-09T07:30:38.642Z,8.43
2024-05-09T07:35:40.941Z,6.93
2024-05-09T07:40:43.399Z,8.93
2024-05-09T07:45:52.481Z,7.10
2024-05-09T07:52:42.902Z,8.80
2024-05-09T07:56:21.729Z,8.97
2024-05-09T08:01:28.390Z,6.73
2024-05-09T08:06:30.784Z,10.43
2024-05-09T08:11:33.366Z,8.43
2024-05-09T08:16:35.674Z,6.30
2024-05-09T08:21:38.038Z,6.87
2024-05-09T08:26:40.298Z,7.23
2024-05-09T08:31:42.904Z,6.63
2024-05-09T08:36:45.250Z,7.23
2024-05-09T08:41:53.702Z,9.63
2024-05-09T08:46:56.650Z,8.27
2024-05-09T08:51:59.013Z,7.37
2024-05-09T08:57:02.288Z,7.50
2024-05-09T09:02:13.703Z,7.03
2024-05-09T09:07:16.322Z,5.03
2024-05-09T09:12:18.640Z,8.37
2024-05-09T09:17:20.969Z,7.73
2024-05-09T09:22:23.357Z,4.93
2024-05-09T09:27:25.717Z,5.53
2024-05-09T09:32:30.984Z,5.27
2024-05-09T09:37:34.977Z,6.43
2024-05-09T09:42:38.431Z,9.07
2024-05-09T09:47:42.045Z,5.03
2024-05-09T09:52:45.363Z,5.60
2024-05-09T09:57:49.590Z,5.10
2024-05-09T10:02:51.961Z,3.63
2024-05-09T10:07:55.750Z,5.53
2024-05-09T10:13:05.888Z,5.10
2024-05-09T10:18:08.484Z,5.70
2024-05-09T10:23:34.604Z,4.70
2024-05-09T10:28:37.521Z,6.03
2024-05-09T10:33:45.824Z,3.10
2024-05-09T10:38:53.207Z,5.70
2024-05-09T10:43:55.531Z,4.03
2024-05-09T10:49:00.347Z,4.70
2024-05-09T10:54:04.043Z,4.90
2024-05-09T10:59:06.592Z,4.83
2024-05-09T11:04:09.379Z,4.68
2024-05-09T11:09:12.094Z,3.30
2024-05-09T11:14:14.496Z,5.80
2024-05-09T11:19:19.731Z,4.10
2024-05-09T11:24:23.579Z,4.00
2024-05-09T11:29:47.442Z,4.00
2024-05-09T11:34:49.709Z,3.65
2024-05-09T11:39:53.937Z,4.03
2024-05-09T11:44:56.228Z,3.15
2024-05-09T11:49:58.532Z,4.60
2024-05-09T11:55:02.841Z,2.97
2024-05-09T12:00:07.390Z,6.32
2024-05-09T12:05:11.905Z,3.05
2024-05-09T12:10:19.588Z,3.55
2024-05-09T12:15:24.846Z,3.10
2024-05-09T12:20:35.287Z,3.55
2024-05-09T12:25:40.723Z,3.63
2024-05-09T12:30:43.142Z,3.10
2024-05-09T12:35:47.368Z,5.57
2024-05-09T12:40:51.749Z,3.55
2024-05-09T12:45:54.186Z,3.53
2024-05-09T12:50:57.752Z,3.72
2024-05-09T12:56:02.437Z,6.03
2024-05-09T13:01:06.301Z,3.40
2024-05-09T13:06:09.190Z,3.30
2024-05-09T13:11:11.620Z,2.42
2024-05-09T13:16:14.087Z,2.92
2024-05-09T13:21:16.529Z,3.55
2024-05-09T13:26:18.934Z,3.20
2024-05-09T13:31:21.206Z,3.92
2024-05-09T13:36:23.672Z,3.35
2024-05-09T13:41:25.935Z,4.95
2024-05-09T13:46:28.358Z,3.40
2024-05-09T13:51:30.725Z,3.33
2024-05-09T13:56:33.025Z,3.45
2024-05-09T14:01:35.355Z,3.42
2024-05-09T14:06:38.432Z,3.50
2024-05-09T14:11:40.783Z,3.45
2024-05-09T14:16:43.578Z,3.70
2024-05-09T14:21:46.054Z,3.53
2024-05-09T14:26:48.698Z,4.47
2024-05-09T14:31:50.999Z,3.17
2024-05-09T14:36:53.340Z,4.32
2024-05-09T14:41:55.643Z,3.63
2024-05-09T14:46:58.072Z,2.70
2024-05-09T14:52:00.370Z,6.88
2024-05-09T14:57:03.075Z,3.55
2024-05-09T15:02:05.456Z,4.10
2024-05-09T15:07:08.337Z,4.13
2024-05-09T15:12:12.583Z,2.70
2024-05-09T15:17:14.909Z,6.40
2024-05-09T15:22:17.629Z,3.30
2024-05-09T15:27:19.933Z,3.55
2024-05-09T15:32:22.269Z,5.20
2024-05-09T15:37:24.812Z,3.55
2024-05-09T15:42:27.299Z,4.85
2024-05-09T15:47:29.730Z,3.08
2024-05-09T15:52:32.036Z,3.25
2024-05-09T15:57:34.376Z,2.97
2024-05-09T16:02:36.840Z,3.83
2024-05-09T16:07:39.314Z,5.50
2024-05-09T16:12:41.645Z,3.97
2024-05-09T16:17:45.165Z,3.97
2024-05-09T16:22:47.484Z,4.38
2024-05-09T16:27:51.704Z,3.75
2024-05-09T16:32:54.116Z,3.67
2024-05-09T16:37:56.575Z,2.65
2024-05-09T16:43:00.145Z,3.80
2024-05-09T16:48:02.942Z,5.15
2024-05-09T16:53:06.566Z,2.60
2024-05-09T16:58:12.089Z,2.85
2024-05-09T17:03:15.820Z,3.85
2024-05-09T17:08:19.865Z,3.75
2024-05-09T17:13:22.795Z,2.60
2024-05-09T17:18:25.442Z,5.32
2024-05-09T17:28:30.477Z,2.50
2024-05-09T17:33:32.938Z,2.70
2024-05-09T17:38:35.378Z,4.13
2024-05-09T17:43:37.730Z,3.00
2024-05-09T17:48:40.201Z,2.72
2024-05-09T17:53:42.603Z,2.85
2024-05-09T17:58:46.578Z,4.40
2024-05-09T18:03:50.174Z,3.65
2024-05-09T18:08:52.713Z,4.15
2024-05-09T18:13:55.041Z,6.13
2024-05-09T18:18:57.670Z,3.30
2024-05-09T18:24:00.445Z,3.20
2024-05-09T18:29:04.171Z,4.30
2024-05-09T18:34:06.597Z,3.05
2024-05-09T18:39:09.250Z,2.63
2024-05-09T18:44:11.628Z,2.70
2024-05-09T18:49:14.151Z,3.25
2024-05-09T18:54:16.747Z,3.58
2024-05-09T18:59:19.122Z,3.00
2024-05-09T19:04:21.568Z,4.85
2024-05-09T19:09:24.071Z,3.80
2024-05-09T19:14:26.427Z,3.85
2024-05-09T19:19:28.960Z,7.10
2024-05-09T19:24:31.685Z,4.10
2024-05-09T19:29:34.063Z,7.88
2024-05-09T19:34:36.409Z,3.20
2024-05-09T19:39:38.767Z,2.97
2024-05-09T19:44:41.071Z,3.83
2024-05-09T19:49:43.517Z,3.60
2024-05-09T19:54:49.644Z,5.27
2024-05-09T19:59:52.056Z,4.00
2024-05-09T20:04:55.054Z,3.40
2024-05-09T20:09:57.555Z,5.07
2024-05-09T20:14:59.961Z,5.03
2024-05-09T20:20:09.159Z,3.73
2024-05-09T20:25:13.734Z,3.03
2024-05-09T20:30:24.748Z,3.72
2024-05-09T20:35:34.150Z,3.97
2024-05-09T20:40:39.050Z,3.63
2024-05-09T20:45:42.339Z,3.47
2024-05-09T20:50:44.827Z,3.93
2024-05-09T20:55:47.410Z,3.33
2024-05-09T21:00:49.871Z,4.37
2024-05-09T21:05:52.434Z,6.03
2024-05-09T21:10:54.940Z,4.00
2024-05-09T21:15:57.488Z,4.23
2024-05-09T21:20:59.903Z,3.90
2024-05-09T21:26:02.209Z,3.67
2024-05-09T21:31:04.882Z,7.03
2024-05-09T21:36:10.060Z,4.17
2024-05-09T21:41:12.363Z,3.60
2024-05-09T21:46:14.832Z,3.77
2024-05-09T21:51:17.304Z,3.57
2024-05-09T21:56:19.604Z,4.47
2024-05-09T22:01:23.031Z,4.43
2024-05-09T22:06:25.355Z,5.03
2024-05-09T22:11:27.776Z,5.40
2024-05-09T22:16:30.256Z,5.40
2024-05-09T22:21:32.700Z,5.60
2024-05-09T22:26:38.151Z,4.40
2024-05-09T22:31:40.475Z,6.30
2024-05-09T22:36:42.812Z,5.43
2024-05-09T22:41:45.704Z,4.93
2024-05-09T22:46:48.111Z,5.13
2024-05-09T22:51:50.554Z,4.27
2024-05-09T22:56:52.873Z,4.73
2024-05-09T23:01:55.340Z,5.40
2024-05-09T23:06:57.802Z,5.07
2024-05-09T23:12:00.234Z,6.83
2024-05-09T23:17:02.679Z,6.27
2024-05-09T23:22:05.250Z,5.20
2024-05-09T23:27:07.701Z,6.67
2024-05-09T23:32:10.069Z,4.23
2024-05-09T23:37:12.394Z,5.10
2024-05-09T23:42:14.737Z,6.47
2024-05-09T23:47:17.063Z,4.20
2024-05-09T23:52:19.582Z,5.27
2024-05-09T23:57:22.162Z,4.83
